Grand Forks, ND

12:46 PM CST on February 10, 2016 (GMT -0600)
APRSWXNET | | Change Station
CLOSE
Current Station
Personal Weather Station
Location: Grand Forks Air Force Base, ND
Elevation: 846 ft
Nearby Weather Stations

Elev 846 ft 47.89 °N, 97.16 °W | Updated 29 minutes ago

Overcast
Overcast
9 °F
Feels Like 9 °F
N
1
Wind Variable Wind from ESE
Gusts 3.0 mph

Today
High -- | Low -- °F
--% Chance of Precip.
Yesterday
High -- | Low -- °F
Precip. -- in
Pressure 30.24 in
Visibility 10.0 miles
Clouds Mostly Cloudy 6000 ft
Overcast 7500 ft
Windchill 9 °F
Dew Point 2 °F
Humidity 74%
Rainfall in
Snow Depth Not available.
7:43 AM 5:42 PM
Waxing Crescent, 6% visible
METAR KGFK 101753Z 09006KT 10SM BKN060 OVC075 M13/M18 A3017 RMK AO2 SLP239 4/001 931002 60001 T11281178 11128 21150 51016 $
Pressure 30.24 in
Visibility 10.0 miles
Clouds Mostly Cloudy 6000 ft
Overcast 7500 ft
Windchill 9 °F
Dew Point 2 °F
Humidity 74%
Rainfall in
Snow Depth Not available.
7:43 AM 5:42 PM
Waxing Crescent, 6% visible
METAR KGFK 101753Z 09006KT 10SM BKN060 OVC075 M13/M18 A3017 RMK AO2 SLP239 4/001 931002 60001 T11281178 11128 21150 51016 $

10-Day Weather Forecast

Almanac

Astronomy

Feb. 10, 2016 Rise Set
Actual Time
Civil Twilight
Nautical Twilight
Astronomical Twilight
Moon
Length of Visible Light
Length of Day
Tomorrow will be .
, % of the Moon is Illuminated

Today's Extremes

State Highs State Lows

Community

WunderPhotos

Upload Photos

1,891,915 photos uploaded!

WunderBlog® & News

Nearby

Air Quality

  Air Quality AQ Index Pollutant
Not available.

Snow Depth

Station Depth Elevation

Earthquake Activity

City Distance Mag. Time & Date
Minimum magnitude displayed is 2.5.

Coastal Water Temperatures

Place Temperature

Stations

Nearby Weather Stations

Station Location Temp. Windchill Dew Point Humidity Wind Precip. Elev Updated Type
                   

Watches & Warnings

There are currently no watches in effect.